Time;durP1;ratioP1;P1;durP2;ratioP2;P2;SDS_P1;SDS_P2;PMS_P1;PMS_P2;Temp;Humidity;BMP_temperature;BMP_pressure;BME280_temperature;BME280_humidity;BME280_pressure;Samples;Min_cycle;Max_cycle;Signal;HPM_P1;HPM_P2
2024/01/19 00:00:18;;;;;;;48.13;26.02;;;-1.40;99.90;;;;;;4993579;28;20030;-46
2024/01/19 00:02:43;;;;;;;52.67;24.65;;;-1.40;99.90;;;;;;4993798;28;20472;-46
2024/01/19 00:05:09;;;;;;;53.08;25.23;;;-1.40;99.90;;;;;;4993627;28;20042;-48
2024/01/19 00:07:34;;;;;;;45.30;24.17;;;-1.40;99.90;;;;;;4993058;28;20042;-46
2024/01/19 00:10:00;;;;;;;44.50;24.15;;;-1.40;99.90;;;;;;4992413;28;20077;-50
2024/01/19 00:12:25;;;;;;;39.60;22.77;;;-1.30;99.90;;;;;;5008365;28;20081;-47
2024/01/19 00:14:51;;;;;;;48.50;25.20;;;-1.30;99.90;;;;;;4993389;28;20025;-51
2024/01/19 00:17:16;;;;;;;42.17;22.33;;;-1.40;99.90;;;;;;4992919;28;20033;-47
2024/01/19 00:19:42;;;;;;;48.38;24.40;;;-1.40;99.90;;;;;;4980599;28;20063;-47
2024/01/19 00:22:07;;;;;;;48.00;22.73;;;-1.40;99.90;;;;;;4973788;28;20101;-49
2024/01/19 00:24:33;;;;;;;40.25;23.58;;;-1.40;99.90;;;;;;4988521;28;20568;-47
2024/01/19 00:26:59;;;;;;;46.45;21.88;;;-1.50;99.90;;;;;;4973404;28;20102;-47
2024/01/19 00:29:24;;;;;;;40.92;21.42;;;-1.40;99.90;;;;;;4973541;28;20027;-46
2024/01/19 00:31:50;;;;;;;37.33;20.65;;;-1.40;99.90;;;;;;4973815;28;20037;-47
2024/01/19 00:34:16;;;;;;;36.85;20.77;;;-1.30;99.90;;;;;;4974402;28;20065;-50
2024/01/19 00:36:42;;;;;;;38.20;18.90;;;-1.30;99.90;;;;;;4973148;28;20070;-48
2024/01/19 00:39:07;;;;;;;30.10;17.13;;;-1.40;99.90;;;;;;4973353;28;20041;-51
2024/01/19 00:41:33;;;;;;;41.13;21.30;;;-1.40;99.90;;;;;;4973447;28;20023;-47
2024/01/19 00:43:59;;;;;;;32.53;18.00;;;-1.40;99.90;;;;;;4973328;28;20061;-47
2024/01/19 00:46:24;;;;;;;38.75;19.85;;;-1.30;99.90;;;;;;4973116;28;20026;-48
2024/01/19 00:48:50;;;;;;;35.00;18.02;;;-1.30;99.90;;;;;;4972078;28;20031;-49
2024/01/19 00:51:16;;;;;;;44.45;20.60;;;-1.30;99.90;;;;;;4973287;28;20443;-47
2024/01/19 00:53:43;;;;;;;38.55;18.55;;;-1.30;99.90;;;;;;4973385;28;20552;-47
2024/01/19 00:56:09;;;;;;;32.22;18.27;;;-1.40;99.90;;;;;;4973166;28;20035;-52
2024/01/19 00:58:36;;;;;;;29.33;16.85;;;-1.40;99.90;;;;;;4971613;28;20034;-48
2024/01/19 01:01:02;;;;;;;36.70;18.27;;;-1.40;99.90;;;;;;4972599;28;20030;-47
2024/01/19 01:03:29;;;;;;;42.50;18.33;;;-1.50;99.90;;;;;;4973032;28;20025;-49
2024/01/19 01:05:56;;;;;;;33.78;17.00;;;-1.50;99.90;;;;;;4973732;28;20136;-48
2024/01/19 01:08:22;;;;;;;28.23;17.27;;;-1.50;99.90;;;;;;4972775;28;20031;-48
2024/01/19 01:10:48;;;;;;;30.55;16.75;;;-1.50;99.90;;;;;;4973143;28;20054;-49
2024/01/19 01:13:14;;;;;;;38.45;16.25;;;-1.60;99.90;;;;;;4973074;28;20501;-49
2024/01/19 01:15:40;;;;;;;31.70;15.63;;;-1.50;99.90;;;;;;4973396;28;20105;-53
2024/01/19 01:18:06;;;;;;;33.78;15.73;;;-1.50;99.90;;;;;;4972637;28;20403;-46
2024/01/19 01:20:31;;;;;;;25.20;15.73;;;-1.40;99.90;;;;;;4972933;28;20038;-47
2024/01/19 01:22:57;;;;;;;31.13;15.32;;;-1.40;99.90;;;;;;4973212;28;20030;-47
2024/01/19 01:25:22;;;;;;;30.52;15.60;;;-1.50;99.90;;;;;;4973127;28;20037;-46
2024/01/19 01:27:48;;;;;;;36.72;15.52;;;-1.50;99.90;;;;;;4972532;28;20446;-48
2024/01/19 01:30:13;;;;;;;25.20;14.27;;;-1.50;99.90;;;;;;4973059;28;20039;-53
2024/01/19 01:32:39;;;;;;;35.38;14.77;;;-1.50;99.90;;;;;;4971729;28;20122;-46
2024/01/19 01:35:04;;;;;;;43.65;18.58;;;-1.50;99.90;;;;;;4973306;28;20027;-50
2024/01/19 01:37:30;;;;;;;27.77;15.23;;;-1.50;99.90;;;;;;4973326;28;20031;-47
2024/01/19 01:39:56;;;;;;;29.15;14.90;;;-1.40;99.90;;;;;;4973316;28;20035;-48
2024/01/19 01:42:21;;;;;;;22.15;14.10;;;-1.40;99.90;;;;;;4973163;28;20423;-47
2024/01/19 01:44:47;;;;;;;27.63;15.20;;;-1.50;99.90;;;;;;4973886;28;20035;-48
2024/01/19 01:47:13;;;;;;;26.40;14.38;;;-1.50;99.90;;;;;;4973775;28;20037;-49
2024/01/19 01:49:38;;;;;;;29.83;15.18;;;-1.50;99.90;;;;;;4974449;28;20450;-49
2024/01/19 01:52:04;;;;;;;36.63;15.15;;;-1.50;99.90;;;;;;4988637;28;20451;-49
2024/01/19 01:54:30;;;;;;;32.65;13.85;;;-1.50;99.90;;;;;;4974041;28;20371;-46
2024/01/19 01:56:56;;;;;;;243.63;112.88;;;-1.50;99.90;;;;;;4973240;28;20027;-46
2024/01/19 01:59:22;;;;;;;99.93;44.70;;;-1.50;99.90;;;;;;4988151;28;20483;-48
2024/01/19 02:01:48;;;;;;;29.00;16.35;;;-1.50;99.90;;;;;;4973289;28;20042;-47
2024/01/19 02:04:15;;;;;;;28.92;14.52;;;-1.40;99.90;;;;;;4973931;28;20031;-47
2024/01/19 02:06:41;;;;;;;27.38;15.80;;;-1.50;99.90;;;;;;4972566;28;20035;-47
2024/01/19 02:09:07;;;;;;;25.33;14.10;;;-1.50;99.90;;;;;;4972452;28;20019;-46
2024/01/19 02:11:33;;;;;;;23.52;13.90;;;-1.40;99.90;;;;;;4972370;28;20022;-50
2024/01/19 02:13:59;;;;;;;29.70;14.35;;;-1.40;99.90;;;;;;4975304;28;20055;-46
2024/01/19 02:16:24;;;;;;;24.17;14.23;;;-1.40;99.90;;;;;;4975891;28;20027;-48
2024/01/19 02:18:51;;;;;;;25.17;14.18;;;-1.50;99.90;;;;;;4976348;28;20396;-51
2024/01/19 02:21:18;;;;;;;28.42;14.48;;;-1.40;99.90;;;;;;4976157;28;20039;-46
2024/01/19 02:24:03;;;;;;;33.35;16.52;;;-1.50;99.90;;;;;;4976032;28;20030;-47
2024/01/19 02:26:34;;;;;;;26.52;15.18;;;-1.50;99.90;;;;;;4976011;28;20061;-47
2024/01/19 02:29:00;;;;;;;35.15;15.05;;;-1.60;99.90;;;;;;4976508;28;20034;-50
2024/01/19 02:31:26;;;;;;;24.02;13.25;;;-1.60;99.90;;;;;;4991608;28;20023;-52
2024/01/19 02:33:51;;;;;;;30.35;14.48;;;-1.60;99.90;;;;;;4976529;28;20027;-46
2024/01/19 02:36:17;;;;;;;29.08;15.07;;;-1.80;99.90;;;;;;4990378;28;20023;-46
2024/01/19 02:38:43;;;;;;;34.10;17.17;;;-1.80;99.90;;;;;;4975772;28;20031;-46
2024/01/19 02:41:09;;;;;;;27.52;14.90;;;-1.70;99.90;;;;;;4975771;28;20535;-46
2024/01/19 02:43:34;;;;;;;31.90;14.27;;;-1.80;99.90;;;;;;4975614;28;20038;-49
2024/01/19 02:46:00;;;;;;;29.10;16.48;;;-1.80;99.90;;;;;;4975617;28;20459;-49
2024/01/19 02:48:25;;;;;;;24.80;14.98;;;-1.80;99.90;;;;;;4975298;28;20492;-48
2024/01/19 02:50:51;;;;;;;31.40;16.10;;;-1.70;99.90;;;;;;4975780;28;20077;-47
2024/01/19 02:53:16;;;;;;;29.40;16.15;;;-1.80;99.90;;;;;;4990819;28;20103;-51
2024/01/19 02:55:42;;;;;;;35.83;16.52;;;-1.80;99.90;;;;;;4975947;28;20027;-46
2024/01/19 02:58:07;;;;;;;33.33;16.48;;;-1.90;99.90;;;;;;4975355;28;20062;-47
2024/01/19 03:00:33;;;;;;;34.22;17.65;;;-2.00;99.90;;;;;;4975865;28;20128;-50
2024/01/19 03:02:58;;;;;;;27.73;16.17;;;-2.00;99.90;;;;;;4973801;28;20031;-47
2024/01/19 03:05:24;;;;;;;34.33;19.80;;;-1.90;99.90;;;;;;4975209;28;20027;-46
2024/01/19 03:07:49;;;;;;;30.85;17.80;;;-2.00;99.90;;;;;;5008559;23;20046;-49
2024/01/19 03:10:15;;;;;;;42.83;20.83;;;-2.10;99.90;;;;;;5014098;28;20397;-50
2024/01/19 03:12:41;;;;;;;32.17;17.27;;;-2.20;99.90;;;;;;5005028;28;20034;-47
2024/01/19 03:15:07;;;;;;;31.00;16.50;;;-2.20;99.90;;;;;;4994604;28;20069;-46
2024/01/19 03:17:33;;;;;;;39.25;19.15;;;-2.20;99.90;;;;;;5007891;28;20025;-48
2024/01/19 03:19:59;;;;;;;35.67;19.48;;;-2.10;99.90;;;;;;5013583;28;20110;-47
2024/01/19 03:22:24;;;;;;;38.25;19.45;;;-2.10;99.90;;;;;;5013880;28;20022;-47
2024/01/19 03:24:50;;;;;;;29.92;18.60;;;-2.10;99.90;;;;;;5012719;28;20055;-48
2024/01/19 03:27:15;;;;;;;35.65;18.88;;;-2.10;99.90;;;;;;5013473;28;20515;-47
2024/01/19 03:29:41;;;;;;;31.38;18.95;;;-2.10;99.90;;;;;;5012418;28;20034;-47
2024/01/19 03:32:06;;;;;;;33.35;17.55;;;-2.00;99.90;;;;;;5013712;28;20076;-46
2024/01/19 03:34:32;;;;;;;31.95;17.35;;;-2.20;99.90;;;;;;5013633;28;20101;-53
2024/01/19 03:37:03;;;;;;;28.65;16.33;;;-2.10;99.90;;;;;;5013245;28;20064;-46
2024/01/19 03:39:29;;;;;;;33.45;18.35;;;-2.10;99.90;;;;;;5013500;28;20034;-49
2024/01/19 03:41:55;;;;;;;44.55;18.88;;;-2.10;99.90;;;;;;5028833;28;20018;-51
2024/01/19 03:44:21;;;;;;;32.22;16.42;;;-2.00;99.90;;;;;;5013411;28;20510;-47
2024/01/19 03:46:46;;;;;;;33.28;15.68;;;-2.00;99.90;;;;;;5013431;28;20037;-48
2024/01/19 03:49:11;;;;;;;29.73;14.85;;;-2.00;99.90;;;;;;5012188;28;20031;-46
2024/01/19 03:51:37;;;;;;;31.15;16.00;;;-2.00;99.90;;;;;;5013425;28;20042;-48
2024/01/19 03:54:02;;;;;;;37.55;16.33;;;-2.00;99.90;;;;;;5013240;28;20022;-51
2024/01/19 03:56:28;;;;;;;26.38;14.95;;;-2.10;99.90;;;;;;5012961;28;20057;-44
2024/01/19 03:58:53;;;;;;;32.65;13.40;;;-2.00;99.90;;;;;;5013108;28;20502;-46
2024/01/19 04:01:19;;;;;;;28.45;16.20;;;-2.10;99.90;;;;;;5012062;28;20036;-52
2024/01/19 04:03:44;;;;;;;30.90;16.73;;;-2.10;99.90;;;;;;5013145;28;20029;-50
2024/01/19 04:06:10;;;;;;;32.72;16.90;;;-2.10;99.90;;;;;;5013047;28;20052;-47
2024/01/19 04:08:35;;;;;;;30.20;16.67;;;-2.20;99.90;;;;;;5011256;28;20030;-47
2024/01/19 04:11:01;;;;;;;34.22;17.60;;;-2.10;99.90;;;;;;5013174;28;20483;-48
2024/01/19 04:13:27;;;;;;;34.10;17.90;;;-2.20;99.90;;;;;;5013201;28;20026;-50
2024/01/19 04:15:52;;;;;;;29.90;17.48;;;-2.10;99.90;;;;;;5012921;28;20414;-47
2024/01/19 04:18:18;;;;;;;29.33;17.33;;;-2.20;99.90;;;;;;5011481;28;20026;-49
2024/01/19 04:20:43;;;;;;;42.70;22.65;;;-2.30;99.90;;;;;;5012634;28;20032;-46
2024/01/19 04:23:09;;;;;;;33.17;18.45;;;-2.30;99.90;;;;;;5012774;28;20022;-47
2024/01/19 04:25:36;;;;;;;33.75;18.02;;;;;;;;;;5012736;28;20037;-47
2024/01/19 04:28:01;;;;;;;41.70;18.98;;;-2.50;99.90;;;;;;5012328;28;20064;-47
2024/01/19 04:30:27;;;;;;;32.15;19.02;;;-2.40;99.90;;;;;;5012673;28;20062;-47
2024/01/19 04:32:52;;;;;;;39.92;20.33;;;-2.40;99.90;;;;;;5012798;28;20029;-49
2024/01/19 04:35:18;;;;;;;33.42;18.98;;;-2.40;99.90;;;;;;5011113;28;20022;-47
2024/01/19 04:37:43;;;;;;;39.30;20.75;;;-2.40;99.90;;;;;;5012142;28;20040;-50
2024/01/19 04:40:09;;;;;;;33.22;19.15;;;-2.40;99.90;;;;;;5012537;28;20096;-47
2024/01/19 04:42:35;;;;;;;37.65;19.60;;;-2.40;99.90;;;;;;5011146;28;20492;-51
2024/01/19 04:45:00;;;;;;;34.05;19.45;;;-2.40;99.90;;;;;;5012467;28;20080;-54
2024/01/19 04:47:26;;;;;;;36.13;19.83;;;-2.40;99.90;;;;;;5010709;28;20030;-47
2024/01/19 04:49:51;;;;;;;38.50;18.98;;;-2.30;99.90;;;;;;5012196;28;20030;-49
2024/01/19 04:52:17;;;;;;;35.90;19.02;;;-2.30;99.90;;;;;;5012287;28;20458;-48
2024/01/19 04:54:42;;;;;;;31.30;18.90;;;-2.30;99.90;;;;;;5012304;28;20399;-47
2024/01/19 04:57:08;;;;;;;38.70;21.17;;;-2.30;99.90;;;;;;5012094;28;20498;-49
2024/01/19 04:59:33;;;;;;;32.75;19.48;;;-2.30;99.90;;;;;;5012311;28;20049;-50
2024/01/19 05:01:59;;;;;;;37.03;22.42;;;-2.40;99.90;;;;;;5011130;28;20021;-51
2024/01/19 05:04:24;;;;;;;43.67;20.40;;;-2.30;99.90;;;;;;5012308;28;20041;-48
2024/01/19 05:06:50;;;;;;;35.65;20.45;;;-2.30;99.90;;;;;;5012002;28;20445;-45
2024/01/19 05:09:16;;;;;;;38.92;20.13;;;-2.40;99.90;;;;;;5011967;28;20056;-48
2024/01/19 05:11:41;;;;;;;31.83;18.15;;;-2.40;99.90;;;;;;5012151;28;20025;-50
2024/01/19 05:14:07;;;;;;;38.00;19.63;;;-2.50;99.90;;;;;;5012127;28;20025;-49
2024/01/19 05:16:32;;;;;;;37.45;18.17;;;-2.50;99.90;;;;;;5011792;28;20033;-48
2024/01/19 05:18:58;;;;;;;30.63;17.20;;;-2.50;99.90;;;;;;5011888;28;20041;-49
2024/01/19 05:21:24;;;;;;;39.42;20.52;;;-2.40;99.90;;;;;;5011876;28;20030;-46
2024/01/19 05:23:49;;;;;;;41.65;19.85;;;-2.40;99.90;;;;;;5012116;28;20246;-48
2024/01/19 05:26:15;;;;;;;42.65;19.90;;;-2.50;99.90;;;;;;5012043;28;20079;-45
2024/01/19 05:28:41;;;;;;;34.00;20.00;;;-2.40;99.90;;;;;;5011816;28;20026;-48
2024/01/19 05:31:06;;;;;;;32.20;18.75;;;-2.40;99.90;;;;;;5010698;28;20033;-50
2024/01/19 05:33:32;;;;;;;30.88;19.67;;;-2.50;99.90;;;;;;5012204;28;20030;-48
2024/01/19 05:35:58;;;;;;;39.53;20.58;;;-2.60;99.90;;;;;;5011997;28;20193;-45
2024/01/19 05:38:23;;;;;;;34.78;19.00;;;-2.60;99.90;;;;;;5011778;28;20026;-48
2024/01/19 05:40:49;;;;;;;31.98;19.05;;;-2.60;99.90;;;;;;5012026;28;20590;-51
2024/01/19 05:43:14;;;;;;;34.13;18.60;;;-2.60;99.90;;;;;;5011864;28;20123;-48
2024/01/19 05:45:40;;;;;;;34.08;18.85;;;-2.60;99.90;;;;;;5011662;28;20100;-52
2024/01/19 05:48:05;;;;;;;35.58;18.70;;;-2.60;99.90;;;;;;5013199;28;20030;-50
2024/01/19 05:50:31;;;;;;;34.53;19.90;;;-2.60;99.90;;;;;;5015603;28;20052;-50
2024/01/19 05:52:57;;;;;;;36.45;18.50;;;-2.70;99.90;;;;;;5015783;28;20022;-49
2024/01/19 05:55:23;;;;;;;32.15;17.50;;;-2.70;99.90;;;;;;5015733;28;20018;-48
2024/01/19 05:57:49;;;;;;;32.65;19.08;;;-2.60;99.90;;;;;;5015335;28;20026;-48
2024/01/19 06:00:14;;;;;;;36.63;19.55;;;-2.60;99.90;;;;;;5014342;28;20030;-50
2024/01/19 06:02:40;;;;;;;36.47;19.65;;;-2.60;99.90;;;;;;5015807;28;20032;-49
2024/01/19 06:05:06;;;;;;;40.55;22.60;;;-2.70;99.90;;;;;;5015779;28;20054;-53
2024/01/19 06:07:32;;;;;;;39.75;22.08;;;-2.70;99.90;;;;;;5015265;28;20030;-49
2024/01/19 06:09:58;;;;;;;37.15;22.00;;;-2.70;99.90;;;;;;5015382;28;20026;-53
2024/01/19 06:12:23;;;;;;;35.75;21.40;;;-2.80;99.90;;;;;;5015436;28;20025;-55
2024/01/19 06:14:49;;;;;;;38.70;21.83;;;-2.80;99.90;;;;;;5015528;28;20034;-48
2024/01/19 06:17:15;;;;;;;36.80;20.88;;;-2.80;99.90;;;;;;5015478;28;20061;-49
2024/01/19 06:19:41;;;;;;;46.20;23.23;;;-3.00;99.90;;;;;;5015328;28;20026;-51
2024/01/19 06:22:07;;;;;;;34.75;20.88;;;-2.90;99.90;;;;;;5015292;28;20029;-46
2024/01/19 06:24:35;;;;;;;42.55;21.92;;;-3.00;99.90;;;;;;5015153;28;20037;-51
2024/01/19 06:27:00;;;;;;;43.50;22.48;;;-3.20;99.90;;;;;;5014842;28;20025;-52
2024/01/19 06:29:27;;;;;;;40.03;20.85;;;-3.30;99.90;;;;;;5013947;28;20030;-47
2024/01/19 06:31:52;;;;;;;39.28;20.92;;;-3.30;99.90;;;;;;5014983;28;20501;-56
2024/01/19 06:34:18;;;;;;;42.92;21.85;;;-3.40;99.90;;;;;;5015041;28;20025;-46
2024/01/19 06:36:44;;;;;;;41.30;23.42;;;-3.30;99.90;;;;;;5013688;28;20017;-47
2024/01/19 06:39:13;;;;;;;42.25;20.88;;;-3.20;99.90;;;;;;5015093;28;20037;-48
2024/01/19 06:41:43;;;;;;;46.72;23.60;;;-3.30;99.90;;;;;;5014886;28;20076;-51
2024/01/19 06:44:12;;;;;;;41.60;22.15;;;-3.30;99.90;;;;;;5014874;28;20058;-48
2024/01/19 06:46:42;;;;;;;53.28;25.30;;;-3.20;99.90;;;;;;5014464;28;20049;-49
2024/01/19 06:49:08;;;;;;;47.03;24.73;;;-3.20;99.90;;;;;;5014638;28;20061;-47
2024/01/19 06:51:33;;;;;;;53.92;24.85;;;-3.20;99.90;;;;;;5014788;28;20022;-53
2024/01/19 06:53:59;;;;;;;50.45;23.77;;;-3.20;99.90;;;;;;5014788;28;20192;-47
2024/01/19 06:56:24;;;;;;;46.00;23.60;;;-3.20;99.90;;;;;;5014284;28;20397;-48
2024/01/19 06:58:50;;;;;;;43.08;23.80;;;-3.30;99.90;;;;;;5014477;28;20069;-50
2024/01/19 07:01:15;;;;;;;43.88;22.42;;;-3.30;99.90;;;;;;5013044;28;20498;-52
2024/01/19 07:03:41;;;;;;;46.65;21.77;;;-3.30;99.90;;;;;;5014478;28;20629;-50
2024/01/19 07:06:06;;;;;;;48.75;23.58;;;-3.30;99.90;;;;;;5014444;28;20368;-45
2024/01/19 07:08:32;;;;;;;40.25;22.90;;;-3.30;99.90;;;;;;5014138;28;20030;-51
2024/01/19 07:10:57;;;;;;;40.22;22.60;;;-3.30;99.90;;;;;;5014422;28;20030;-47
2024/01/19 07:13:23;;;;;;;44.83;21.35;;;-3.20;99.90;;;;;;5014355;28;20026;-48
2024/01/19 07:15:48;;;;;;;44.10;20.58;;;-3.30;99.90;;;;;;5014290;28;20017;-48
2024/01/19 07:18:14;;;;;;;41.45;22.08;;;-3.30;99.90;;;;;;5029931;28;20061;-52
2024/01/19 07:20:39;;;;;;;41.22;19.65;;;-3.30;99.90;;;;;;5035092;28;20076;-44
2024/01/19 07:23:05;;;;;;;44.25;21.17;;;-3.30;99.90;;;;;;5018820;28;20146;-53
2024/01/19 07:25:30;;;;;;;40.33;22.00;;;-3.20;99.90;;;;;;5017680;28;20022;-53
2024/01/19 07:27:56;;;;;;;36.65;22.23;;;-3.30;99.90;;;;;;5017321;28;20026;-44
2024/01/19 07:30:21;;;;;;;47.08;22.75;;;-3.20;99.90;;;;;;5014025;28;20119;-52
2024/01/19 07:32:47;;;;;;;41.20;23.30;;;-3.30;99.90;;;;;;5014001;28;20406;-48
2024/01/19 07:35:12;;;;;;;46.33;23.27;;;-3.30;99.90;;;;;;5012719;28;20076;-49
2024/01/19 07:37:38;;;;;;;38.00;21.10;;;-3.20;99.90;;;;;;5013694;28;20511;-48
2024/01/19 07:40:04;;;;;;;50.70;23.98;;;-3.10;99.90;;;;;;5013690;28;20022;-50
2024/01/19 07:42:29;;;;;;;47.80;22.58;;;-3.10;99.90;;;;;;5013834;28;20037;-50
2024/01/19 07:44:55;;;;;;;46.60;24.02;;;-3.10;99.90;;;;;;5012329;28;20578;-52
2024/01/19 07:47:20;;;;;;;34.78;22.60;;;-3.00;99.90;;;;;;5013544;28;20083;-49
2024/01/19 07:49:46;;;;;;;43.28;21.88;;;-3.00;99.90;;;;;;5013522;28;20519;-47
2024/01/19 07:52:11;;;;;;;36.42;21.50;;;-3.00;99.90;;;;;;5013352;28;20026;-48
2024/01/19 07:54:37;;;;;;;37.20;20.83;;;-3.00;99.90;;;;;;5013594;28;20034;-51
2024/01/19 07:57:03;;;;;;;32.28;20.08;;;-3.00;99.90;;;;;;5013159;28;20060;-50
2024/01/19 07:59:28;;;;;;;38.08;19.75;;;-3.00;99.90;;;;;;5013497;28;20069;-46
2024/01/19 08:01:54;;;;;;;41.75;19.55;;;-3.10;99.90;;;;;;5013463;28;20083;-49
2024/01/19 08:04:19;;;;;;;30.98;19.05;;;-3.00;99.90;;;;;;5012146;28;20479;-50
2024/01/19 08:06:45;;;;;;;35.83;21.00;;;-3.00;99.90;;;;;;5011976;28;20033;-49
2024/01/19 08:09:13;;;;;;;41.63;21.00;;;-3.00;99.90;;;;;;5011907;28;20518;-51
2024/01/19 08:11:39;;;;;;;36.72;19.40;;;-2.90;99.90;;;;;;5013159;28;20100;-47
2024/01/19 08:14:04;;;;;;;33.85;18.90;;;-2.80;99.90;;;;;;5013319;28;20057;-51
2024/01/19 08:16:30;;;;;;;34.00;19.38;;;-2.80;99.90;;;;;;5012785;28;20061;-53
2024/01/19 08:18:58;;;;;;;36.28;19.58;;;-2.80;99.90;;;;;;5012859;28;20456;-49
2024/01/19 08:21:24;;;;;;;31.90;18.40;;;-2.90;99.90;;;;;;5013025;28;20026;-52
2024/01/19 08:23:50;;;;;;;39.60;18.08;;;-2.80;99.90;;;;;;5012961;28;20113;-47
2024/01/19 08:26:18;;;;;;;33.85;18.23;;;-2.80;99.90;;;;;;5013120;28;20029;-47
2024/01/19 08:28:46;;;;;;;32.03;18.50;;;-2.80;99.90;;;;;;5012890;28;20034;-49
2024/01/19 08:31:12;;;;;;;33.05;18.58;;;-2.70;99.90;;;;;;5013025;28;20070;-47
2024/01/19 08:33:38;;;;;;;35.17;18.38;;;-2.70;99.90;;;;;;5013067;28;20025;-50
2024/01/19 08:36:03;;;;;;;28.65;17.25;;;-2.50;99.90;;;;;;5011482;28;20109;-48
2024/01/19 08:38:29;;;;;;;37.47;18.75;;;-2.30;99.90;;;;;;5012378;28;20026;-49
2024/01/19 08:40:55;;;;;;;37.92;18.30;;;-2.20;99.90;;;;;;5012957;28;20018;-47
2024/01/19 08:43:20;;;;;;;30.83;17.83;;;-2.00;99.90;;;;;;5012990;28;20228;-47
2024/01/19 08:45:46;;;;;;;29.42;17.48;;;-1.90;99.90;;;;;;5014101;28;20024;-48
2024/01/19 08:48:12;;;;;;;31.42;18.38;;;-1.80;99.90;;;;;;5014293;28;20041;-47
2024/01/19 08:50:38;;;;;;;30.27;18.13;;;-1.70;99.90;;;;;;5012587;28;20057;-47
2024/01/19 08:53:04;;;;;;;29.30;17.92;;;-1.60;99.90;;;;;;5012469;28;20451;-50
2024/01/19 08:55:29;;;;;;;26.80;16.23;;;-1.30;99.90;;;;;;5012687;28;20021;-52
2024/01/19 08:57:55;;;;;;;31.92;16.70;;;-1.00;99.90;;;;;;5012373;28;20022;-48
2024/01/19 09:00:21;;;;;;;29.30;16.33;;;-1.10;99.90;;;;;;5012669;28;20084;-51
2024/01/19 09:02:50;;;;;;;29.88;16.85;;;-1.20;99.90;;;;;;5012673;28;20041;-51
2024/01/19 09:05:15;;;;;;;27.27;18.27;;;-1.40;99.90;;;;;;5012779;28;20030;-49
2024/01/19 09:07:41;;;;;;;33.90;17.75;;;-1.50;99.90;;;;;;5033413;23;21652;-47
2024/01/19 09:10:07;;;;;;;28.00;18.00;;;-0.40;99.90;;;;;;5011862;28;20392;-44
2024/01/19 09:12:33;;;;;;;26.60;15.30;;;-0.30;99.90;;;;;;5012379;28;20032;-45
2024/01/19 09:14:58;;;;;;;22.67;14.77;;;0.30;99.90;;;;;;5012370;28;20450;-44
2024/01/19 09:17:24;;;;;;;28.50;15.95;;;0.50;99.90;;;;;;5011762;28;20132;-48
2024/01/19 09:19:51;;;;;;;23.13;15.50;;;0.30;99.90;;;;;;5011008;28;20406;-44
2024/01/19 09:22:17;;;;;;;28.27;16.95;;;0.00;99.90;;;;;;5011054;28;20416;-47
2024/01/19 09:24:43;;;;;;;30.08;16.73;;;-0.10;99.90;;;;;;5012134;28;20042;-44
2024/01/19 09:27:08;;;;;;;26.50;17.10;;;0.00;99.90;;;;;;5011765;28;20553;-46
2024/01/19 09:29:33;;;;;;;24.77;16.55;;;0.00;99.90;;;;;;5011063;28;20117;-43
2024/01/19 09:31:59;;;;;;;27.38;16.60;;;0.00;99.90;;;;;;5011888;28;20022;-45
2024/01/19 09:34:24;;;;;;;29.38;17.02;;;-0.10;99.90;;;;;;5011828;28;20030;-44
2024/01/19 09:36:50;;;;;;;33.83;18.45;;;-0.20;99.90;;;;;;5011609;28;20115;-45
2024/01/19 09:39:15;;;;;;;31.13;18.52;;;-0.20;99.90;;;;;;5012214;28;20033;-45
2024/01/19 09:41:46;;;;;;;21.80;15.48;;;0.20;99.90;;;;;;5010627;28;20026;-45
2024/01/19 09:44:12;;;;;;;30.55;16.73;;;-0.20;99.90;;;;;;4994384;28;20034;-48
2024/01/19 09:46:52;;;;;;;23.25;14.82;;;-0.20;99.90;;;;;;5011522;28;20037;-45
2024/01/19 09:49:33;;;;;;;25.67;15.95;;;-0.20;99.90;;;;;;5011536;28;20030;-44
2024/01/19 09:52:12;;;;;;;24.13;14.15;;;-0.20;99.90;;;;;;5011719;28;20032;-46
2024/01/19 09:54:37;;;;;;;24.60;15.48;;;-0.20;99.90;;;;;;5011708;28;20375;-44
2024/01/19 09:57:03;;;;;;;22.88;15.07;;;-0.30;99.90;;;;;;5011338;28;20033;-44
2024/01/19 09:59:33;;;;;;;25.42;15.10;;;-0.40;99.90;;;;;;5011717;28;20601;-44
2024/01/19 10:02:00;;;;;;;21.50;14.13;;;-0.50;99.90;;;;;;5011488;28;20045;-44
2024/01/19 10:04:26;;;;;;;25.00;14.70;;;-0.70;99.90;;;;;;5011585;28;20034;-43
2024/01/19 10:06:53;;;;;;;26.95;15.30;;;-0.70;99.90;;;;;;5011684;28;20560;-43
2024/01/19 10:09:19;;;;;;;20.10;13.70;;;-0.70;99.90;;;;;;5011368;28;20080;-47
2024/01/19 10:11:49;;;;;;;24.55;13.63;;;-0.40;99.90;;;;;;5011863;28;20100;-43
2024/01/19 10:14:15;;;;;;;22.58;13.10;;;-0.30;99.90;;;;;;5011251;28;20231;-43
2024/01/19 10:16:42;;;;;;;21.13;13.48;;;0.00;99.90;;;;;;5011379;28;20667;-45
2024/01/19 10:19:09;;;;;;;20.90;12.50;;;0.50;99.90;;;;;;5011102;28;20439;-44
2024/01/19 10:21:34;;;;;;;26.27;14.93;;;0.60;99.90;;;;;;5011541;28;20026;-46
2024/01/19 10:24:11;;;;;;;22.30;13.38;;;0.50;99.90;;;;;;5011276;28;20033;-43
2024/01/19 10:26:37;;;;;;;22.65;12.65;;;0.60;99.90;;;;;;5010950;28;20026;-48
2024/01/19 10:29:13;;;;;;;22.63;14.02;;;0.60;99.90;;;;;;5011106;28;20026;-46
2024/01/19 10:31:40;;;;;;;;;;;0.50;99.90;;;;;;5011737;28;20030;-45
2024/01/19 10:34:14;;;;;;;24.92;12.55;;;0.50;99.90;;;;;;5012430;28;20375;-45
2024/01/19 10:36:40;;;;;;;24.17;14.07;;;0.30;99.90;;;;;;5014944;28;20036;-43
2024/01/19 10:39:31;;;;;;;22.63;13.10;;;0.20;99.90;;;;;;5014908;28;20034;-45
2024/01/19 10:42:09;;;;;;;36.40;18.77;;;0.10;99.90;;;;;;5014689;28;20518;-49
2024/01/19 10:44:34;;;;;;;21.13;13.18;;;0.10;99.90;;;;;;5015027;28;20030;-48
2024/01/19 10:47:00;;;;;;;26.08;15.52;;;0.60;99.90;;;;;;5014753;28;20070;-45
2024/01/19 10:49:26;;;;;;;47.22;21.33;;;0.70;99.90;;;;;;5014476;28;20498;-43
2024/01/19 10:51:52;;;;;;;28.08;16.17;;;0.60;99.90;;;;;;5014660;28;20057;-44
2024/01/19 10:54:27;;;;;;;28.25;15.60;;;0.70;99.90;;;;;;5014553;28;20398;-44
2024/01/19 10:57:06;;;;;;;24.27;15.25;;;0.80;99.90;;;;;;5014417;28;20018;-44
2024/01/19 10:59:32;;;;;;;34.20;15.30;;;0.90;99.90;;;;;;5014617;28;20525;-42
2024/01/19 11:02:04;;;;;;;26.48;15.50;;;0.80;99.90;;;;;;5014522;28;20079;-45
2024/01/19 11:04:29;;;;;;;24.88;15.70;;;0.70;99.90;;;;;;5014519;28;20517;-45
2024/01/19 11:06:55;;;;;;;24.98;15.15;;;0.80;99.90;;;;;;5014289;28;20021;-45
2024/01/19 11:09:21;;;;;;;30.83;17.50;;;0.70;99.90;;;;;;5014321;28;20034;-46
2024/01/19 11:11:53;;;;;;;33.50;19.08;;;0.60;99.90;;;;;;5014293;28;20025;-45
2024/01/19 11:14:23;;;;;;;29.27;18.40;;;0.50;99.90;;;;;;5014339;28;20442;-46
2024/01/19 11:16:51;;;;;;;32.78;19.15;;;0.60;99.90;;;;;;5013734;28;20045;-47
2024/01/19 11:19:18;;;;;;;31.42;17.75;;;2.00;99.90;;;;;;5014274;28;20030;-47
2024/01/19 11:21:44;;;;;;;33.35;18.58;;;0.80;99.90;;;;;;5013057;28;20038;-46
2024/01/19 11:24:12;;;;;;;31.60;19.45;;;0.70;99.90;;;;;;5014272;28;20030;-45
2024/01/19 11:27:02;;;;;;;31.33;19.20;;;0.60;99.90;;;;;;5013707;28;20033;-45
2024/01/19 11:29:33;;;;;;;29.60;19.20;;;0.50;99.90;;;;;;5013971;28;20026;-46
2024/01/19 11:32:00;;;;;;;36.63;18.35;;;0.40;99.90;;;;;;5014013;28;20022;-44
2024/01/19 11:34:45;;;;;;;36.15;21.20;;;0.30;99.90;;;;;;5013760;28;20486;-44
2024/01/19 11:37:44;;;;;;;37.22;20.00;;;0.40;99.90;;;;;;5013360;28;20438;-45
2024/01/19 11:40:30;;;;;;;36.55;20.27;;;0.50;99.90;;;;;;5013467;28;20104;-46
2024/01/19 11:42:56;;;;;;;32.83;19.73;;;0.70;99.90;;;;;;5013401;28;20057;-43
2024/01/19 11:45:27;;;;;;;30.77;19.50;;;0.80;99.90;;;;;;5012514;28;20096;-45
2024/01/19 11:47:54;;;;;;;35.90;20.42;;;0.70;99.90;;;;;;5011772;28;20622;-42
2024/01/19 11:50:46;;;;;;;39.03;20.35;;;0.70;99.90;;;;;;5028290;28;20426;-46
2024/01/19 11:53:13;;;;;;;46.05;24.90;;;0.70;99.90;;;;;;5013310;28;20022;-46
2024/01/19 11:55:41;;;;;;;314.45;140.45;;;0.70;99.90;;;;;;5011668;28;20395;-45
2024/01/19 11:58:38;;;;;;;68.03;33.03;;;0.60;99.90;;;;;;5012917;28;20108;-44
2024/01/19 12:01:03;;;;;;;46.70;21.30;;;0.60;99.90;;;;;;5014388;28;20399;-45
2024/01/19 12:03:29;;;;;;;35.33;18.85;;;0.70;99.90;;;;;;5013630;28;20021;-44
2024/01/19 12:06:00;;;;;;;31.05;19.02;;;0.70;99.90;;;;;;5012024;28;20030;-41
2024/01/19 12:08:26;;;;;;;30.65;19.30;;;0.70;99.90;;;;;;5012910;28;20033;-45
2024/01/19 12:11:05;;;;;;;37.67;19.67;;;0.80;99.90;;;;;;5013068;28;20483;-43
2024/01/19 12:13:32;;;;;;;33.80;19.05;;;0.80;99.90;;;;;;5011664;28;20026;-44
2024/01/19 12:15:58;;;;;;;27.90;17.77;;;0.80;99.90;;;;;;5013167;28;20096;-46
2024/01/19 12:18:25;;;;;;;32.47;18.83;;;0.80;99.90;;;;;;5011569;28;20026;-44
2024/01/19 12:20:55;;;;;;;26.77;17.27;;;0.80;99.90;;;;;;5012608;28;20025;-46
2024/01/19 12:23:21;;;;;;;30.77;17.60;;;0.90;99.90;;;;;;5013032;28;20029;-44
2024/01/19 12:25:47;;;;;;;29.65;17.00;;;1.00;99.90;;;;;;5013008;28;20033;-43